createdAt,value
2019-06-01T00:02:24.120Z,101534.31
2019-06-01T00:04:56.181Z,101535.27
2019-06-01T00:07:29.099Z,101528.98
2019-06-01T00:10:01.694Z,101517.31
2019-06-01T00:12:33.949Z,101516.39
2019-06-01T00:15:06.071Z,101521.39
2019-06-01T00:17:38.118Z,101527.23
2019-06-01T00:20:10.455Z,101522.77
2019-06-01T00:22:43.371Z,101520.53
2019-06-01T00:25:15.901Z,101522.80
2019-06-01T00:27:48.813Z,101529.06
2019-06-01T00:30:27.042Z,101523.72
2019-06-01T00:32:56.384Z,101530.05
2019-06-01T00:35:36.559Z,101529.64
2019-06-01T00:38:10.162Z,101534.59
2019-06-01T00:40:44.370Z,101533.30
2019-06-01T00:43:18.535Z,101535.13
2019-06-01T00:45:50.716Z,101533.38
2019-06-01T00:48:24.304Z,101519.92
2019-06-01T00:50:57.038Z,101526.65
2019-06-01T00:53:29.378Z,101527.11
2019-06-01T00:56:02.437Z,101521.28
2019-06-01T00:58:35.884Z,101515.95
2019-06-01T01:01:09.327Z,101515.98
2019-06-01T01:03:41.651Z,101514.17
2019-06-01T01:06:14.107Z,101508.41
2019-06-01T01:08:55.231Z,101503.05
2019-06-01T01:11:28.235Z,101502.61
2019-06-01T01:14:01.022Z,101499.50
2019-06-01T01:16:34.136Z,101502.22
2019-06-01T01:19:07.599Z,101498.20
2019-06-01T01:21:39.503Z,101495.51
2019-06-01T01:24:20.773Z,101496.85
2019-06-01T01:26:52.677Z,101495.07
2019-06-01T01:29:25.221Z,101502.30
2019-06-01T01:31:57.544Z,101507.70
2019-06-01T01:34:38.094Z,101508.14
2019-06-01T01:37:30.255Z,101498.31
2019-06-01T01:40:03.786Z,101496.09
2019-06-01T01:42:36.366Z,101505.55
2019-06-01T01:45:09.600Z,101503.33
2019-06-01T01:47:42.941Z,101495.27
2019-06-01T01:50:17.487Z,101499.33
2019-06-01T01:52:50.627Z,101496.64
2019-06-01T01:55:33.396Z,101497.08
2019-06-01T01:58:05.950Z,101486.34
2019-06-01T02:00:46.146Z,101492.64
2019-06-01T02:03:19.120Z,101493.98
2019-06-01T02:05:51.114Z,101488.19
2019-06-01T02:08:23.988Z,101490.89
2019-06-01T02:10:59.542Z,101491.36
2019-06-01T02:13:33.782Z,101486.42
2019-06-01T02:16:06.237Z,101487.33
2019-06-01T02:18:37.693Z,101485.55
2019-06-01T02:21:11.130Z,101482.84
2019-06-01T02:23:43.142Z,101481.97
2019-06-01T02:26:16.427Z,101481.52
2019-06-01T02:28:50.488Z,101485.11
2019-06-01T02:31:39.801Z,101475.73
2019-06-01T02:33:58.662Z,101478.44
2019-06-01T02:36:32.861Z,101483.80
2019-06-01T02:39:07.123Z,101477.53
2019-06-01T02:41:40.589Z,101473.95
2019-06-01T02:44:13.002Z,101476.19
2019-06-01T02:46:45.853Z,101459.20
2019-06-01T02:49:17.801Z,101459.63
2019-06-01T02:51:50.323Z,101464.16
2019-06-01T02:54:24.801Z,101463.70
2019-06-01T02:57:14.616Z,101457.44
2019-06-01T02:59:48.362Z,101458.80
2019-06-01T03:02:21.746Z,101461.47
2019-06-01T03:04:57.083Z,101453.43
2019-06-01T03:07:31.908Z,101452.97
2019-06-01T03:10:06.957Z,101452.52
2019-06-01T03:12:45.822Z,101449.41
2019-06-01T03:15:19.228Z,101450.77
2019-06-01T03:17:56.639Z,101450.31
2019-06-01T03:20:31.942Z,101445.84
2019-06-01T03:23:05.765Z,101439.15
2019-06-01T03:25:41.099Z,101436.45
2019-06-01T03:28:16.727Z,101436.89
2019-06-01T03:30:49.480Z,101438.25
2019-06-01T03:33:23.329Z,101442.29
2019-06-01T03:35:56.799Z,101442.73
2019-06-01T03:38:30.143Z,101440.50
2019-06-01T03:41:04.010Z,101429.77
2019-06-01T03:43:35.983Z,101436.92
2019-06-01T03:46:09.474Z,101435.15
2019-06-01T03:48:41.538Z,101428.86
2019-06-01T03:51:22.963Z,101439.14
2019-06-01T03:53:55.021Z,101431.06
2019-06-01T03:56:28.041Z,101435.54
2019-06-01T03:59:03.075Z,101433.31
2019-06-01T04:01:36.564Z,101435.11
2019-06-01T04:04:09.426Z,101437.33
2019-06-01T04:06:42.344Z,101443.16
2019-06-01T04:09:14.959Z,101440.02
2019-06-01T04:11:47.582Z,101438.20
2019-06-01T04:14:20.494Z,101445.36
2019-06-01T04:16:53.854Z,101448.95
2019-06-01T04:19:35.532Z,101445.80
2019-06-01T04:22:12.868Z,101444.00
2019-06-01T04:24:45.638Z,101441.74
2019-06-01T04:27:19.459Z,101447.09
2019-06-01T04:29:52.637Z,101441.73
2019-06-01T04:32:26.405Z,101440.40
2019-06-01T04:34:58.581Z,101439.05
2019-06-01T04:37:31.352Z,101447.09
2019-06-01T04:40:05.420Z,101446.22
2019-06-01T04:42:44.903Z,101442.20
2019-06-01T04:45:18.792Z,101439.04
2019-06-01T04:47:50.318Z,101437.70
2019-06-01T04:50:30.646Z,101435.03
2019-06-01T04:53:13.308Z,101436.81
2019-06-01T04:55:45.620Z,101440.39
2019-06-01T04:58:17.563Z,101435.95
2019-06-01T05:01:01.658Z,101433.70
2019-06-01T05:03:35.001Z,101435.03
2019-06-01T05:06:07.514Z,101434.95
2019-06-01T05:08:40.052Z,101434.95
2019-06-01T05:11:13.586Z,101436.72
2019-06-01T05:13:46.577Z,101430.95
2019-06-01T05:16:20.264Z,101422.13
2019-06-01T05:18:54.178Z,101433.77
2019-06-01T05:21:26.218Z,101427.08
2019-06-01T05:23:59.462Z,101430.62
2019-06-01T05:26:32.640Z,101425.88
2019-06-01T05:29:07.457Z,101418.78
2019-06-01T05:31:39.803Z,101426.61
2019-06-01T05:34:20.496Z,101425.59
2019-06-01T05:36:52.847Z,101435.58
2019-06-01T05:39:24.871Z,101444.39
2019-06-01T05:41:57.224Z,101451.16
2019-06-01T05:44:30.931Z,101444.01
2019-06-01T05:47:04.486Z,101446.67
2019-06-01T05:49:36.407Z,101453.83
2019-06-01T05:52:18.812Z,101450.20
2019-06-01T05:54:50.540Z,101447.97
2019-06-01T05:57:23.429Z,101447.45
2019-06-01T05:59:55.656Z,101448.96
2019-06-01T06:02:27.562Z,101454.22
2019-06-01T06:05:00.195Z,101451.34
2019-06-01T06:07:35.436Z,101452.20
2019-06-01T06:10:09.947Z,101449.86
2019-06-01T06:12:42.463Z,101450.55
2019-06-01T06:15:15.714Z,101449.01
2019-06-01T06:18:05.140Z,101446.98
2019-06-01T06:20:50.291Z,101444.98
2019-06-01T06:23:24.153Z,101446.83
2019-06-01T06:25:55.616Z,101451.09
2019-06-01T06:28:28.489Z,101451.23
2019-06-01T06:31:00.518Z,101440.67
2019-06-01T06:33:36.757Z,101435.84
2019-06-01T06:36:07.764Z,101431.62
2019-06-01T06:38:40.326Z,101435.08
2019-06-01T06:41:24.349Z,101433.92
2019-06-01T06:43:57.246Z,101440.15
2019-06-01T06:46:41.273Z,101441.11
2019-06-01T06:49:14.927Z,101445.66
2019-06-01T06:51:47.288Z,101434.61
2019-06-01T06:54:19.936Z,101439.27
2019-06-01T06:56:59.579Z,101435.91
2019-06-01T06:59:32.006Z,101434.45
2019-06-01T07:02:05.558Z,101440.66
2019-06-01T07:04:47.672Z,101438.09
2019-06-01T07:07:20.230Z,101437.70
2019-06-01T07:09:52.570Z,101435.59
2019-06-01T07:12:25.385Z,101421.45
2019-06-01T07:14:58.843Z,101438.26
2019-06-01T07:17:31.909Z,101437.02
2019-06-01T07:20:05.417Z,101430.03
2019-06-01T07:22:37.546Z,101438.54
2019-06-01T07:25:12.511Z,101439.25
2019-06-01T07:27:45.163Z,101433.06
2019-06-01T07:30:18.527Z,101436.48
2019-06-01T07:32:51.579Z,101440.18
2019-06-01T07:35:24.423Z,101440.52
2019-06-01T07:37:57.630Z,101437.58
2019-06-01T07:40:30.765Z,101440.82
2019-06-01T07:43:03.143Z,101427.48
2019-06-01T07:45:35.853Z,101429.06
2019-06-01T07:48:08.409Z,101429.54
2019-06-01T07:50:40.928Z,101426.44
2019-06-01T07:53:14.904Z,101421.93
2019-06-01T07:55:48.014Z,101423.17
2019-06-01T07:58:20.966Z,101422.93
2019-06-01T08:00:53.696Z,101428.12
2019-06-01T08:03:28.719Z,101418.56
2019-06-01T08:06:00.136Z,101422.34
2019-06-01T08:08:32.681Z,101424.86
2019-06-01T08:11:04.347Z,101417.52
2019-06-01T08:13:36.954Z,101418.02
2019-06-01T08:16:09.329Z,101422.77
2019-06-01T08:18:43.538Z,101416.84
2019-06-01T08:21:16.770Z,101411.09
2019-06-01T08:23:48.032Z,101416.72
2019-06-01T08:26:20.581Z,101410.30
2019-06-01T08:28:52.397Z,101417.59
2019-06-01T08:31:24.898Z,101415.40
2019-06-01T08:33:57.462Z,101408.94
2019-06-01T08:36:29.669Z,101406.20
2019-06-01T08:39:02.167Z,101409.34
2019-06-01T08:41:34.843Z,101397.53
2019-06-01T08:44:09.182Z,101399.39
2019-06-01T08:46:51.205Z,101398.64
2019-06-01T08:49:25.858Z,101404.30
2019-06-01T08:51:59.516Z,101402.08
2019-06-01T08:54:34.346Z,101400.37
2019-06-01T08:57:06.939Z,101389.05
2019-06-01T08:59:39.969Z,101395.34
2019-06-01T09:02:14.048Z,101397.87
2019-06-01T09:04:46.027Z,101390.56
2019-06-01T09:07:19.519Z,101396.40
2019-06-01T09:09:52.478Z,101393.67
2019-06-01T09:12:25.121Z,101394.77
2019-06-01T09:14:58.983Z,101389.87
2019-06-01T09:17:31.577Z,101390.13
2019-06-01T09:20:04.295Z,101394.16
2019-06-01T09:22:37.624Z,101393.95
2019-06-01T09:25:10.513Z,101389.13
2019-06-01T09:27:42.679Z,101391.81
2019-06-01T09:30:16.449Z,101379.73
2019-06-01T09:32:48.410Z,101379.28
2019-06-01T09:35:19.217Z,101382.28
2019-06-01T09:37:51.309Z,101373.85
2019-06-01T09:40:23.562Z,101370.05
2019-06-01T09:42:55.629Z,101375.73
2019-06-01T09:45:28.209Z,101376.86
2019-06-01T09:47:59.751Z,101365.20
2019-06-01T09:50:33.453Z,101366.99
2019-06-01T09:53:05.570Z,101366.35
2019-06-01T09:55:38.464Z,101364.66
2019-06-01T09:58:11.230Z,101357.89
2019-06-01T10:00:44.076Z,101363.86
2019-06-01T10:03:16.458Z,101361.49
2019-06-01T10:06:01.456Z,101358.02
2019-06-01T10:08:22.676Z,101365.29
2019-06-01T10:10:56.276Z,101360.53
2019-06-01T10:13:28.230Z,101364.30
2019-06-01T10:15:59.065Z,101361.52
2019-06-01T10:18:30.968Z,101350.05
2019-06-01T10:21:03.007Z,101356.73
2019-06-01T10:23:34.745Z,101349.52
2019-06-01T10:26:07.816Z,101352.80
2019-06-01T10:28:40.338Z,101355.55
2019-06-01T10:31:11.942Z,101350.62
2019-06-01T10:33:43.424Z,101349.44
2019-06-01T10:36:20.510Z,101344.36
2019-06-01T10:38:49.916Z,101336.16
2019-06-01T10:41:22.985Z,101341.17
2019-06-01T10:43:55.878Z,101346.70
2019-06-01T10:46:29.077Z,101347.73
2019-06-01T10:49:01.086Z,101333.83
2019-06-01T10:51:32.496Z,101334.73
2019-06-01T10:54:05.616Z,101340.52
2019-06-01T10:56:38.480Z,101341.79
2019-06-01T10:59:11.272Z,101333.04
2019-06-01T11:01:42.977Z,101331.37
2019-06-01T11:04:15.536Z,101328.08
2019-06-01T11:06:48.801Z,101330.80
2019-06-01T11:09:20.737Z,101334.52
2019-06-01T11:11:53.505Z,101320.67
2019-06-01T11:14:24.676Z,101309.63
2019-06-01T11:16:57.036Z,101310.25
2019-06-01T11:19:28.939Z,101309.55
2019-06-01T11:22:00.497Z,101318.08
2019-06-01T11:24:33.268Z,101313.55
2019-06-01T11:27:05.417Z,101309.45
2019-06-01T11:29:42.878Z,101305.81
2019-06-01T11:32:10.737Z,101299.19
2019-06-01T11:34:42.494Z,101297.55
2019-06-01T11:37:15.796Z,101296.38
2019-06-01T11:39:47.699Z,101297.83
2019-06-01T11:42:19.921Z,101289.52
2019-06-01T11:44:52.565Z,101278.98
2019-06-01T11:47:23.577Z,101282.59
2019-06-01T11:49:55.218Z,101280.74
2019-06-01T11:52:30.996Z,101276.02
2019-06-01T11:55:04.041Z,101276.28
2019-06-01T11:57:35.576Z,101275.62
2019-06-01T12:00:09.419Z,101259.12
2019-06-01T12:02:41.823Z,101259.39
2019-06-01T12:05:14.484Z,101256.70
2019-06-01T12:07:46.094Z,101247.47
2019-06-01T12:10:17.977Z,101264.20
2019-06-01T12:12:50.497Z,101250.06
2019-06-01T12:15:26.579Z,101244.23
2019-06-01T12:17:57.827Z,101245.37
2019-06-01T12:20:29.697Z,101238.17
2019-06-01T12:23:01.596Z,101227.85
2019-06-01T12:25:33.796Z,101222.66
2019-06-01T12:28:05.336Z,101233.87
2019-06-01T12:30:37.510Z,101235.69
2019-06-01T12:33:09.416Z,101233.47
2019-06-01T12:35:42.011Z,101224.04
2019-06-01T12:38:13.176Z,101231.04
2019-06-01T12:40:43.690Z,101227.55
2019-06-01T12:43:14.196Z,101218.37
2019-06-01T12:45:45.700Z,101214.00
2019-06-01T12:48:17.136Z,101209.02
2019-06-01T12:50:50.757Z,101208.97
2019-06-01T12:53:19.858Z,101212.92
2019-06-01T12:55:50.389Z,101202.13
2019-06-01T12:58:21.296Z,101198.08
2019-06-01T13:00:52.522Z,101195.33
2019-06-01T13:03:22.865Z,101188.98
2019-06-01T13:05:53.416Z,101192.22
2019-06-01T13:08:23.517Z,101183.70
2019-06-01T13:10:53.877Z,101176.83
2019-06-01T13:13:24.076Z,101169.81
2019-06-01T13:15:54.764Z,101177.19
2019-06-01T13:18:25.224Z,101166.11
2019-06-01T13:20:56.157Z,101166.58
2019-06-01T13:23:27.046Z,101166.75
2019-06-01T13:25:57.401Z,101158.61
2019-06-01T13:28:37.650Z,101155.43
2019-06-01T13:30:59.481Z,101150.45
2019-06-01T13:33:29.816Z,101157.58
2019-06-01T13:36:00.101Z,101148.60
2019-06-01T13:38:31.419Z,101149.75
2019-06-01T13:41:03.437Z,101154.63
2019-06-01T13:43:34.977Z,101148.98
2019-06-01T13:46:06.623Z,101135.41
2019-06-01T13:48:37.157Z,101134.84
2019-06-01T13:51:09.136Z,101140.43
2019-06-01T13:53:40.376Z,101130.56
2019-06-01T13:56:11.856Z,101129.62
2019-06-01T13:58:42.676Z,101126.15
2019-06-01T14:01:14.736Z,101121.84
2019-06-01T14:03:45.537Z,101125.69
2019-06-01T14:06:17.513Z,101118.73
2019-06-01T14:08:51.160Z,101121.00
2019-06-01T14:11:22.537Z,101113.56
2019-06-01T14:13:56.174Z,101114.55
2019-06-01T14:16:27.676Z,101103.89
2019-06-01T14:19:01.002Z,101104.67
2019-06-01T14:21:33.420Z,101100.95
2019-06-01T14:24:05.441Z,101102.95
2019-06-01T14:26:37.563Z,101094.37
2019-06-01T14:29:09.351Z,101101.13
2019-06-01T14:31:41.893Z,101101.85
2019-06-01T14:34:14.237Z,101087.97
2019-06-01T14:36:46.410Z,101086.30
2019-06-01T14:39:18.825Z,101083.01
2019-06-01T14:41:51.890Z,101086.82
2019-06-01T14:44:23.385Z,101085.84
2019-06-01T14:47:04.983Z,101083.94
2019-06-01T14:49:28.852Z,101075.08
2019-06-01T14:52:00.753Z,101068.11
2019-06-01T14:54:33.383Z,101080.79
2019-06-01T14:57:05.098Z,101072.20
2019-06-01T14:59:37.961Z,101071.67
2019-06-01T15:02:14.382Z,101065.93
2019-06-01T15:04:46.096Z,101066.25
2019-06-01T15:07:18.027Z,101076.38
2019-06-01T15:09:50.152Z,101069.50
2019-06-01T15:12:22.915Z,101061.70
2019-06-01T15:14:55.510Z,101061.62
2019-06-01T15:17:27.713Z,101059.56
2019-06-01T15:20:00.418Z,101057.10
2019-06-01T15:22:31.888Z,101049.64
2019-06-01T15:25:04.706Z,101054.66
2019-06-01T15:27:38.005Z,101043.95
2019-06-01T15:30:10.824Z,101052.31
2019-06-01T15:32:42.693Z,101040.60
2019-06-01T15:35:16.362Z,101044.59
2019-06-01T15:37:51.292Z,101039.15
2019-06-01T15:40:23.542Z,101040.11
2019-06-01T15:42:55.250Z,101042.70
2019-06-01T15:45:41.318Z,101045.48
2019-06-01T15:48:13.564Z,101029.93
2019-06-01T15:50:45.237Z,101016.31
2019-06-01T15:53:17.589Z,101024.23
2019-06-01T15:55:49.517Z,101008.12
2019-06-01T15:58:22.504Z,101008.30
2019-06-01T16:00:56.735Z,101003.84
2019-06-01T16:03:28.396Z,101004.44
2019-06-01T16:06:01.297Z,100998.98
2019-06-01T16:08:34.619Z,101002.03
2019-06-01T16:11:07.474Z,101003.39
2019-06-01T16:13:40.237Z,100997.89
2019-06-01T16:16:13.367Z,100994.88
2019-06-01T16:18:46.092Z,101002.97
2019-06-01T16:21:18.637Z,100991.06
2019-06-01T16:23:50.740Z,100975.23
2019-06-01T16:26:22.403Z,100982.20
2019-06-01T16:28:54.880Z,100977.02
2019-06-01T16:31:26.763Z,100975.95
2019-06-01T16:33:59.015Z,100974.53
2019-06-01T16:36:31.414Z,100975.69
2019-06-01T16:39:07.816Z,100968.50
2019-06-01T16:41:41.047Z,100978.27
2019-06-01T16:44:13.735Z,100967.83
2019-06-01T16:46:45.799Z,100970.56
2019-06-01T16:49:17.765Z,100959.25
2019-06-01T16:51:54.420Z,100956.55
2019-06-01T16:54:26.888Z,100963.56
2019-06-01T16:56:59.384Z,100956.59
2019-06-01T16:59:32.143Z,100956.84
2019-06-01T17:02:06.106Z,100956.14
2019-06-01T17:04:40.541Z,100953.73
2019-06-01T17:07:12.274Z,100951.41
2019-06-01T17:09:46.140Z,100954.15
2019-06-01T17:12:18.056Z,100952.29
2019-06-01T17:14:58.858Z,100960.27
2019-06-01T17:17:38.118Z,100951.73
2019-06-01T17:20:07.351Z,100949.24
2019-06-01T17:22:41.601Z,100942.28
2019-06-01T17:25:14.018Z,100942.42
2019-06-01T17:27:45.649Z,100936.32
2019-06-01T17:30:18.068Z,100929.56
2019-06-01T17:32:50.030Z,100938.28
2019-06-01T17:35:22.057Z,100937.47
2019-06-01T17:37:53.729Z,100929.03
2019-06-01T17:40:36.841Z,100923.19
2019-06-01T17:43:00.914Z,100923.72
2019-06-01T17:45:41.713Z,100918.42
2019-06-01T17:48:25.752Z,100921.44
2019-06-01T17:50:49.657Z,100915.41
2019-06-01T17:53:21.465Z,100919.20
2019-06-01T17:55:53.539Z,100912.23
2019-06-01T17:58:26.356Z,100910.27
2019-06-01T18:00:58.573Z,100910.45
2019-06-01T18:03:32.437Z,100914.65
2019-06-01T18:06:05.843Z,100911.84
2019-06-01T18:08:38.919Z,100912.05
2019-06-01T18:11:10.794Z,100917.37
2019-06-01T18:13:42.568Z,100903.19
2019-06-01T18:16:15.644Z,100905.89
2019-06-01T18:18:47.147Z,100907.33
2019-06-01T18:21:19.576Z,100910.55
2019-06-01T18:23:53.551Z,100907.64
2019-06-01T18:26:25.438Z,100910.05
2019-06-01T18:28:57.706Z,100912.33
2019-06-01T18:31:31.324Z,100909.18
2019-06-01T18:34:05.467Z,100904.41
2019-06-01T18:36:45.148Z,100904.11
2019-06-01T18:39:19.590Z,100902.08
2019-06-01T18:41:54.213Z,100902.36
2019-06-01T18:44:26.194Z,100897.76
2019-06-01T18:46:59.725Z,100897.06
2019-06-01T18:49:31.564Z,100898.59
2019-06-01T18:52:06.494Z,100898.65
2019-06-01T18:54:38.698Z,100900.56
2019-06-01T18:57:20.467Z,100904.92
2019-06-01T18:59:47.390Z,100896.33
2019-06-01T19:02:20.564Z,100895.95
2019-06-01T19:04:52.518Z,100896.34
2019-06-01T19:07:25.775Z,100888.74
2019-06-01T19:09:57.248Z,100889.20
2019-06-01T19:12:29.706Z,100889.20
2019-06-01T19:15:01.422Z,100884.01
2019-06-01T19:17:42.690Z,100889.62
2019-06-01T19:20:17.961Z,100886.25
2019-06-01T19:22:49.502Z,100886.02
2019-06-01T19:25:21.171Z,100880.86
2019-06-01T19:27:53.131Z,100884.69
2019-06-01T19:30:39.212Z,100881.15
2019-06-01T19:33:15.464Z,100883.16
2019-06-01T19:35:46.522Z,100877.37
2019-06-01T19:38:19.544Z,100873.22
2019-06-01T19:40:51.899Z,100878.41
2019-06-01T19:43:24.225Z,100880.90
2019-06-01T19:45:57.570Z,100875.67
2019-06-01T19:48:31.060Z,100878.55
2019-06-01T19:51:04.030Z,100880.16
2019-06-01T19:53:36.016Z,100889.20
2019-06-01T19:56:08.823Z,100886.78
2019-06-01T19:58:41.946Z,100894.47
2019-06-01T20:01:14.526Z,100895.02
2019-06-01T20:03:47.082Z,100892.80
2019-06-01T20:06:20.459Z,100889.80
2019-06-01T20:08:53.215Z,100891.57
2019-06-01T20:11:26.342Z,100892.73
2019-06-01T20:13:57.934Z,100886.66
2019-06-01T20:16:38.654Z,100885.86
2019-06-01T20:19:13.432Z,100887.06
2019-06-01T20:21:46.512Z,100888.62
2019-06-01T20:24:19.405Z,100883.32
2019-06-01T20:27:00.500Z,100893.61
2019-06-01T20:29:32.507Z,100892.05
2019-06-01T20:32:06.534Z,100880.16
2019-06-01T20:34:52.802Z,100889.95
2019-06-01T20:37:24.870Z,100893.83
2019-06-01T20:39:56.409Z,100890.42
2019-06-01T20:42:32.787Z,100890.16
2019-06-01T20:45:03.680Z,100896.13
2019-06-01T20:47:36.437Z,100891.90
2019-06-01T20:50:12.620Z,100892.62
2019-06-01T20:52:45.899Z,100901.44
2019-06-01T20:55:21.237Z,100907.02
2019-06-01T20:57:52.403Z,100908.59
2019-06-01T21:00:24.934Z,100898.47
2019-06-01T21:02:57.139Z,100904.91
2019-06-01T21:05:28.884Z,100901.20
2019-06-01T21:08:01.722Z,100902.91
2019-06-01T21:10:34.271Z,100899.97
2019-06-01T21:13:08.116Z,100899.39
2019-06-01T21:15:42.132Z,100905.57
2019-06-01T21:18:14.306Z,100906.22
2019-06-01T21:20:46.294Z,100906.08
2019-06-01T21:23:20.753Z,100908.09
2019-06-01T21:25:53.561Z,100912.36
2019-06-01T21:28:26.369Z,100907.18
2019-06-01T21:30:58.449Z,100915.37
2019-06-01T21:33:32.703Z,100908.19
2019-06-01T21:36:05.348Z,100911.67
2019-06-01T21:38:39.878Z,100911.12
2019-06-01T21:41:12.394Z,100909.05
2019-06-01T21:43:46.042Z,100908.61
2019-06-01T21:46:19.672Z,100904.89
2019-06-01T21:48:52.293Z,100902.02
2019-06-01T21:51:26.012Z,100901.22
2019-06-01T21:54:00.340Z,100905.04
2019-06-01T21:56:32.035Z,100905.70
2019-06-01T21:59:04.911Z,100903.11
2019-06-01T22:01:37.827Z,100900.08
2019-06-01T22:04:11.183Z,100907.37
2019-06-01T22:06:46.326Z,100901.73
2019-06-01T22:09:17.368Z,100896.46
2019-06-01T22:11:49.265Z,100898.55
2019-06-01T22:14:23.249Z,100890.54
2019-06-01T22:16:56.438Z,100892.12
2019-06-01T22:19:30.234Z,100894.06
2019-06-01T22:22:02.201Z,100886.04
2019-06-01T22:24:33.999Z,100881.46
2019-06-01T22:27:06.305Z,100885.34
2019-06-01T22:29:38.405Z,100887.61
2019-06-01T22:32:10.588Z,100883.55
2019-06-01T22:34:43.508Z,100881.39
2019-06-01T22:37:16.802Z,100874.84
2019-06-01T22:39:49.591Z,100877.66
2019-06-01T22:42:22.465Z,100876.48
2019-06-01T22:44:57.138Z,100872.09
2019-06-01T22:47:30.142Z,100865.80
2019-06-01T22:50:02.972Z,100870.81
2019-06-01T22:52:36.138Z,100863.19
2019-06-01T22:55:10.279Z,100856.06
2019-06-01T22:57:44.958Z,100853.45
2019-06-01T23:00:19.978Z,100856.27
2019-06-01T23:02:51.491Z,100849.61
2019-06-01T23:05:23.133Z,100840.97
2019-06-01T23:07:54.790Z,100848.86
2019-06-01T23:10:31.691Z,100842.38
2019-06-01T23:13:00.448Z,100846.53
2019-06-01T23:15:32.686Z,100841.19
2019-06-01T23:18:05.781Z,100842.11
2019-06-01T23:20:38.363Z,100843.05
2019-06-01T23:23:11.252Z,100841.84
2019-06-01T23:25:43.985Z,100842.48
2019-06-01T23:28:16.044Z,100838.09
2019-06-01T23:30:48.546Z,100850.80
2019-06-01T23:33:20.766Z,100854.05
2019-06-01T23:35:54.037Z,100850.26
2019-06-01T23:38:26.810Z,100848.27
2019-06-01T23:40:59.542Z,100845.75
2019-06-01T23:43:32.993Z,100854.22
2019-06-01T23:46:05.589Z,100855.16
2019-06-01T23:48:37.452Z,100854.63
2019-06-01T23:51:14.121Z,100855.22
2019-06-01T23:53:45.860Z,100854.43
2019-06-01T23:56:17.956Z,100849.55
2019-06-01T23:58:50.194Z,100855.58
